createdAt,value
2022-09-12T00:00:23.065Z,13.02
2022-09-12T00:02:53.705Z,9.48
2022-09-12T00:05:20.119Z,8.65
2022-09-12T00:07:46.539Z,8.48
2022-09-12T00:10:12.878Z,7.88
2022-09-12T00:12:39.275Z,9.55
2022-09-12T00:15:06.276Z,9.05
2022-09-12T00:17:36.470Z,9.32
2022-09-12T00:20:04.967Z,9.07
2022-09-12T00:22:31.358Z,13.85
2022-09-12T00:24:57.665Z,8.68
2022-09-12T00:27:23.973Z,8.02
2022-09-12T00:29:50.382Z,9.23
2022-09-12T00:32:16.739Z,8.30
2022-09-12T00:34:43.055Z,8.00
2022-09-12T00:37:09.407Z,8.30
2022-09-12T00:39:35.758Z,9.05
2022-09-12T00:42:02.489Z,8.55
2022-09-12T00:44:28.681Z,8.93
2022-09-12T00:46:56.966Z,7.65
2022-09-12T00:49:27.111Z,7.97
2022-09-12T00:51:57.826Z,8.48
2022-09-12T00:54:30.363Z,8.52
2022-09-12T00:57:02.037Z,8.45
2022-09-12T00:59:40.093Z,7.30
2022-09-12T01:02:07.164Z,8.73
2022-09-12T01:04:35.212Z,8.68
2022-09-12T01:07:03.931Z,8.38
2022-09-12T01:09:30.455Z,10.15
2022-09-12T01:11:57.002Z,8.85
2022-09-12T01:14:23.434Z,8.73
2022-09-12T01:16:50.618Z,8.38
2022-09-12T01:19:41.910Z,9.48
2022-09-12T01:22:32.871Z,10.18
2022-09-12T01:25:08.273Z,8.80
2022-09-12T01:27:47.103Z,8.52
2022-09-12T01:30:32.006Z,9.20
2022-09-12T01:33:35.254Z,9.05
2022-09-12T01:36:32.323Z,8.48
2022-09-12T01:39:09.241Z,8.45
2022-09-12T01:41:54.443Z,8.30
2022-09-12T01:44:25.807Z,10.57
2022-09-12T01:47:02.629Z,9.05
2022-09-12T01:49:34.016Z,10.20
2022-09-12T01:52:05.862Z,9.57
2022-09-12T01:55:12.725Z,8.93
2022-09-12T01:57:50.179Z,9.25
2022-09-12T02:00:16.495Z,9.10
2022-09-12T02:03:04.019Z,9.13
2022-09-12T02:05:33.420Z,8.82
2022-09-12T02:08:07.936Z,9.88
2022-09-12T02:10:40.253Z,8.63
2022-09-12T02:13:11.618Z,9.23
2022-09-12T02:15:40.834Z,9.23
2022-09-12T02:18:08.321Z,9.63
2022-09-12T02:20:47.873Z,9.82
2022-09-12T02:23:25.512Z,9.23
2022-09-12T02:25:56.057Z,8.95
2022-09-12T02:28:26.175Z,9.57
2022-09-12T02:31:13.581Z,11.25
2022-09-12T02:34:09.910Z,9.25
2022-09-12T02:36:54.550Z,8.00
2022-09-12T02:41:50.939Z,8.13
2022-09-12T02:44:17.468Z,7.93
2022-09-12T02:46:46.741Z,7.93
2022-09-12T02:49:13.273Z,8.18
2022-09-12T02:51:40.309Z,9.50
2022-09-12T02:54:07.384Z,7.93
2022-09-12T02:56:35.156Z,8.27
2022-09-12T02:59:05.573Z,7.85
2022-09-12T03:01:37.593Z,7.50
2022-09-12T03:04:36.700Z,9.70
2022-09-12T03:07:13.629Z,7.88
2022-09-12T03:09:47.212Z,7.43
2022-09-12T03:12:26.935Z,8.73
2022-09-12T03:15:11.864Z,8.70
2022-09-12T03:17:55.607Z,8.50
2022-09-12T03:20:38.687Z,10.07
2022-09-12T03:23:59.737Z,8.00
2022-09-12T03:26:31.018Z,8.85
2022-09-12T03:28:59.095Z,10.10
2022-09-12T03:31:25.798Z,9.40
2022-09-12T03:33:52.130Z,9.70
2022-09-12T03:36:27.986Z,10.00
2022-09-12T03:38:54.542Z,9.02
2022-09-12T03:41:21.534Z,9.18
2022-09-12T03:43:48.295Z,9.68
2022-09-12T03:46:14.924Z,9.95
2022-09-12T03:48:41.412Z,11.15
2022-09-12T03:51:09.536Z,9.50
2022-09-12T03:53:36.234Z,10.70
2022-09-12T03:56:09.977Z,9.93
2022-09-12T03:58:36.836Z,9.35
2022-09-12T04:01:12.569Z,8.90
2022-09-12T04:03:46.029Z,9.02
2022-09-12T04:06:15.111Z,8.85
2022-09-12T04:08:42.692Z,7.65
2022-09-12T04:11:12.017Z,11.52
2022-09-12T04:13:39.970Z,8.18
2022-09-12T04:16:07.194Z,8.50
2022-09-12T04:18:34.205Z,9.55
2022-09-12T04:21:08.549Z,9.50
2022-09-12T04:26:02.691Z,11.43
2022-09-12T04:28:29.402Z,9.15
2022-09-12T04:30:56.302Z,10.02
2022-09-12T04:33:22.637Z,9.82
2022-09-12T04:35:48.964Z,10.23
2022-09-12T04:38:15.308Z,8.50
2022-09-12T04:40:41.838Z,10.85
2022-09-12T04:43:13.712Z,9.75
2022-09-12T04:45:40.833Z,9.52
2022-09-12T04:48:07.145Z,9.60
2022-09-12T04:50:34.475Z,8.65
2022-09-12T04:53:00.882Z,9.07
2022-09-12T04:55:28.334Z,9.82
2022-09-12T04:57:54.753Z,8.63
2022-09-12T05:00:21.143Z,13.43
2022-09-12T05:02:47.636Z,12.95
2022-09-12T05:05:13.983Z,8.93
2022-09-12T05:07:40.449Z,9.55
2022-09-12T05:10:07.329Z,8.82
2022-09-12T05:12:33.825Z,9.35
2022-09-12T05:15:00.151Z,9.27
2022-09-12T05:17:29.416Z,10.63
2022-09-12T05:19:55.780Z,10.10
2022-09-12T05:22:22.724Z,8.55
2022-09-12T05:24:50.721Z,7.85
2022-09-12T05:27:17.218Z,8.38
2022-09-12T05:29:43.532Z,9.23
2022-09-12T05:32:10.095Z,8.18
2022-09-12T05:34:37.796Z,9.90
2022-09-12T05:37:04.224Z,8.90
2022-09-12T05:39:30.531Z,10.25
2022-09-12T05:41:56.841Z,10.73
2022-09-12T05:44:23.150Z,10.80
2022-09-12T05:46:51.202Z,10.05
2022-09-12T05:49:17.534Z,14.48
2022-09-12T05:51:45.397Z,11.93
2022-09-12T05:54:13.583Z,10.80
2022-09-12T05:56:41.751Z,13.07
2022-09-12T05:59:20.817Z,12.43
2022-09-12T06:01:48.329Z,12.82
2022-09-12T06:04:14.807Z,11.90
2022-09-12T06:06:44.779Z,14.38
2022-09-12T06:09:12.411Z,12.90
2022-09-12T06:11:40.973Z,11.20
2022-09-12T06:14:08.524Z,13.90
2022-09-12T06:16:35.605Z,14.68
2022-09-12T06:19:14.110Z,14.18
2022-09-12T06:21:40.749Z,12.13
2022-09-12T06:24:09.910Z,13.93
2022-09-12T06:26:36.534Z,12.18
2022-09-12T06:29:03.633Z,13.18
2022-09-12T06:31:33.058Z,12.93
2022-09-12T06:34:01.368Z,11.65
2022-09-12T06:36:29.654Z,12.30
2022-09-12T06:39:07.667Z,12.90
2022-09-12T06:41:34.086Z,12.15
2022-09-12T06:44:01.177Z,12.73
2022-09-12T06:46:28.093Z,11.95
2022-09-12T06:48:59.455Z,14.80
2022-09-12T06:51:27.045Z,16.25
2022-09-12T06:53:55.871Z,10.75
2022-09-12T06:56:23.837Z,11.55
2022-09-12T06:58:50.930Z,12.48
2022-09-12T07:01:28.669Z,10.32
2022-09-12T07:03:56.817Z,10.52
2022-09-12T07:06:29.596Z,11.85
2022-09-12T07:09:00.851Z,10.82
2022-09-12T07:11:32.434Z,10.00
2022-09-12T07:14:00.398Z,11.50
2022-09-12T07:16:26.856Z,10.43
2022-09-12T07:18:55.302Z,9.43
2022-09-12T07:21:22.536Z,10.57
2022-09-12T07:23:49.701Z,9.82
2022-09-12T07:26:16.411Z,8.82
2022-09-12T07:28:43.337Z,10.85
2022-09-12T07:31:15.285Z,11.00
2022-09-12T07:33:42.276Z,8.98
2022-09-12T07:36:12.128Z,9.93
2022-09-12T07:38:38.952Z,9.13
2022-09-12T07:41:17.403Z,9.60
2022-09-12T07:43:43.883Z,8.57
2022-09-12T07:46:10.622Z,8.15
2022-09-12T07:48:38.140Z,8.90
2022-09-12T07:51:07.488Z,9.45
2022-09-12T07:53:36.798Z,7.95
2022-09-12T07:56:05.014Z,8.75
2022-09-12T07:58:32.044Z,8.63
2022-09-12T08:01:14.998Z,8.90
2022-09-12T08:03:42.866Z,9.00
2022-09-12T08:06:12.047Z,9.80
2022-09-12T08:08:38.633Z,9.77
2022-09-12T08:11:07.489Z,10.43
2022-09-12T08:13:35.575Z,9.30
2022-09-12T08:16:05.763Z,9.25
2022-09-12T08:18:32.640Z,9.38
2022-09-12T08:21:00.137Z,8.68
2022-09-12T08:23:28.334Z,9.55
2022-09-12T08:26:05.898Z,11.25
2022-09-12T08:28:34.065Z,9.13
2022-09-12T08:31:01.958Z,11.07
2022-09-12T08:33:32.966Z,9.48
2022-09-12T08:36:04.354Z,10.30
2022-09-12T08:38:30.786Z,8.35
2022-09-12T08:41:18.286Z,9.27
2022-09-12T08:44:02.977Z,9.68
2022-09-12T08:46:36.225Z,9.00
2022-09-12T08:49:04.177Z,9.90
2022-09-12T08:51:34.178Z,8.73
2022-09-12T08:54:01.931Z,8.50
2022-09-12T08:56:32.065Z,8.70
2022-09-12T08:58:59.252Z,9.00
2022-09-12T09:01:34.787Z,7.70
2022-09-12T09:04:28.933Z,9.27
2022-09-12T09:07:16.797Z,7.82
2022-09-12T09:09:54.606Z,9.00
2022-09-12T09:12:31.964Z,8.38
2022-09-12T09:15:11.241Z,8.70
2022-09-12T09:17:49.899Z,8.48
2022-09-12T09:20:23.989Z,9.05
2022-09-12T09:22:57.805Z,8.00
2022-09-12T09:25:29.483Z,14.15
2022-09-12T09:28:00.861Z,8.93
2022-09-12T09:30:28.564Z,9.05
2022-09-12T09:32:57.705Z,8.77
2022-09-12T09:35:45.955Z,7.93
2022-09-12T09:38:23.234Z,9.73
2022-09-12T09:40:55.332Z,7.88
2022-09-12T09:43:23.680Z,8.07
2022-09-12T09:45:51.811Z,11.10
2022-09-12T09:48:27.965Z,9.07
2022-09-12T09:50:54.345Z,7.93
2022-09-12T09:53:36.877Z,9.55
2022-09-12T09:56:09.730Z,12.05
2022-09-12T09:58:36.740Z,8.65
2022-09-12T10:01:05.784Z,7.60
2022-09-12T10:03:35.742Z,8.18
2022-09-12T10:06:34.897Z,9.15
2022-09-12T10:09:18.704Z,7.70
2022-09-12T10:11:46.815Z,7.50
2022-09-12T10:14:31.119Z,10.93
2022-09-12T10:16:58.603Z,7.80
2022-09-12T10:19:36.002Z,7.28
2022-09-12T10:22:03.742Z,7.45
2022-09-12T10:24:41.069Z,9.48
2022-09-12T10:27:13.471Z,7.88
2022-09-12T10:29:52.262Z,8.27
2022-09-12T10:32:26.289Z,9.15
2022-09-12T10:35:07.298Z,9.38
2022-09-12T10:37:35.501Z,8.07
2022-09-12T10:40:03.866Z,7.72
2022-09-12T10:42:51.621Z,8.90
2022-09-12T10:45:24.622Z,7.80
2022-09-12T10:47:53.214Z,8.90
2022-09-12T10:50:28.216Z,9.30
2022-09-12T10:52:56.286Z,9.32
2022-09-12T10:55:30.560Z,6.70
2022-09-12T11:00:30.566Z,7.47
2022-09-12T11:03:17.466Z,9.30
2022-09-12T11:05:54.789Z,9.48
2022-09-12T11:08:28.136Z,8.35
2022-09-12T11:11:01.955Z,7.53
2022-09-12T11:13:49.890Z,7.10
2022-09-12T11:16:31.469Z,5.80
2022-09-12T11:19:24.983Z,6.28
2022-09-12T11:22:16.119Z,7.55
2022-09-12T11:25:09.675Z,7.60
2022-09-12T11:28:04.343Z,8.82
2022-09-12T11:30:38.125Z,6.68
2022-09-12T11:33:12.789Z,7.95
2022-09-12T11:35:54.452Z,8.80
2022-09-12T11:38:46.869Z,6.38
2022-09-12T11:41:19.102Z,7.50
2022-09-12T11:43:51.599Z,6.43
2022-09-12T11:46:31.760Z,11.15
2022-09-12T11:49:12.265Z,6.50
2022-09-12T11:51:41.281Z,5.30
2022-09-12T11:54:22.657Z,7.22
2022-09-12T11:56:53.936Z,5.38
2022-09-12T11:59:43.318Z,8.05
2022-09-12T12:02:17.509Z,8.65
2022-09-12T12:07:15.202Z,4.93
2022-09-12T12:09:48.030Z,5.72
2022-09-12T12:12:19.203Z,5.28
2022-09-12T12:14:48.145Z,5.63
2022-09-12T12:17:16.585Z,4.90
2022-09-12T12:19:43.228Z,5.03
2022-09-12T12:22:18.380Z,4.13
2022-09-12T12:25:16.293Z,4.97
2022-09-12T12:27:59.014Z,5.25
2022-09-12T12:30:31.431Z,4.57
2022-09-12T12:33:04.578Z,4.35
2022-09-12T12:35:38.118Z,4.85
2022-09-12T12:38:25.863Z,4.35
2022-09-12T12:40:52.434Z,5.22
2022-09-12T12:43:31.856Z,4.03
2022-09-12T12:46:03.293Z,5.05
2022-09-12T12:48:31.864Z,7.00
2022-09-12T12:51:23.511Z,4.20
2022-09-12T12:53:50.713Z,4.30
2022-09-12T12:56:39.324Z,5.38
2022-09-12T12:59:19.477Z,4.13
2022-09-12T13:01:56.078Z,4.65
2022-09-12T13:04:25.263Z,5.07
2022-09-12T13:07:08.826Z,5.53
2022-09-12T13:09:47.987Z,5.33
2022-09-12T13:12:21.378Z,4.18
2022-09-12T13:14:55.790Z,3.97
2022-09-12T13:17:42.236Z,3.88
2022-09-12T13:20:27.910Z,3.95
2022-09-12T13:22:55.173Z,4.30
2022-09-12T13:25:28.653Z,3.67
2022-09-12T13:28:02.311Z,4.38
2022-09-12T13:30:31.534Z,3.60
2022-09-12T13:32:59.106Z,4.03
2022-09-12T13:35:38.539Z,4.30
2022-09-12T13:38:16.987Z,3.58
2022-09-12T13:40:57.763Z,4.28
2022-09-12T13:43:41.454Z,4.15
2022-09-12T13:46:09.296Z,3.70
2022-09-12T13:48:35.793Z,4.40
2022-09-12T13:51:02.743Z,3.67
2022-09-12T13:53:35.871Z,3.47
2022-09-12T13:56:03.657Z,4.15
2022-09-12T13:58:32.063Z,4.43
2022-09-12T14:01:10.394Z,4.03
2022-09-12T14:04:26.645Z,3.75
2022-09-12T14:06:53.310Z,3.97
2022-09-12T14:09:32.661Z,3.72
2022-09-12T14:11:59.387Z,4.35
2022-09-12T14:14:31.983Z,3.30
2022-09-12T14:16:58.990Z,4.47
2022-09-12T14:19:25.965Z,3.65
2022-09-12T14:21:53.317Z,4.43
2022-09-12T14:24:23.510Z,4.68
2022-09-12T14:26:52.802Z,3.63
2022-09-12T14:29:19.768Z,3.72
2022-09-12T14:31:46.115Z,3.78
2022-09-12T14:34:19.425Z,3.80
2022-09-12T14:36:54.972Z,3.57
2022-09-12T14:39:26.601Z,3.72
2022-09-12T14:42:02.334Z,3.30
2022-09-12T14:44:29.601Z,4.13
2022-09-12T14:46:56.913Z,3.53
2022-09-12T14:49:32.166Z,3.40
2022-09-12T14:52:00.792Z,3.78
2022-09-12T14:54:30.412Z,3.78
2022-09-12T14:56:58.030Z,4.28
2022-09-12T14:59:36.187Z,3.53
2022-09-12T15:02:20.623Z,4.60
2022-09-12T15:04:49.064Z,4.18
2022-09-12T15:07:35.782Z,3.92
2022-09-12T15:10:05.358Z,3.72
2022-09-12T15:12:31.909Z,3.78
2022-09-12T15:15:01.160Z,4.82
2022-09-12T15:17:27.463Z,3.17
2022-09-12T15:19:53.827Z,2.88
2022-09-12T15:22:22.529Z,5.32
2022-09-12T15:24:49.294Z,3.47
2022-09-12T15:27:15.599Z,3.50
2022-09-12T15:29:42.039Z,3.75
2022-09-12T15:32:14.661Z,4.28
2022-09-12T15:34:40.975Z,4.03
2022-09-12T15:37:12.786Z,3.80
2022-09-12T15:39:39.208Z,3.33
2022-09-12T15:42:05.630Z,4.20
2022-09-12T15:44:31.943Z,3.55
2022-09-12T15:46:58.258Z,4.25
2022-09-12T15:49:24.586Z,4.55
2022-09-12T15:51:50.909Z,7.15
2022-09-12T15:54:17.279Z,3.55
2022-09-12T15:56:43.870Z,5.03
2022-09-12T15:59:10.199Z,3.90
2022-09-12T16:01:36.553Z,3.78
2022-09-12T16:04:05.451Z,3.88
2022-09-12T16:06:37.264Z,3.95
2022-09-12T16:09:03.979Z,3.35
2022-09-12T16:11:30.330Z,4.75
2022-09-12T16:13:56.887Z,3.67
2022-09-12T16:16:23.375Z,3.25
2022-09-12T16:18:49.820Z,5.00
2022-09-12T16:21:16.253Z,3.92
2022-09-12T16:23:46.553Z,3.15
2022-09-12T16:26:13.235Z,2.83
2022-09-12T16:28:39.870Z,3.00
2022-09-12T16:31:07.636Z,3.03
2022-09-12T16:33:34.450Z,5.28
2022-09-12T16:36:05.885Z,3.22
2022-09-12T16:38:32.575Z,2.78
2022-09-12T16:41:03.806Z,2.92
2022-09-12T16:43:31.096Z,2.58
2022-09-12T16:46:05.486Z,2.88
2022-09-12T16:48:32.304Z,3.10
2022-09-12T16:51:00.611Z,3.10
2022-09-12T16:53:29.854Z,4.18
2022-09-12T16:55:56.162Z,10.02
2022-09-12T16:58:22.814Z,3.03
2022-09-12T17:00:49.124Z,4.18
2022-09-12T17:03:16.833Z,2.33
2022-09-12T17:05:43.430Z,4.13
2022-09-12T17:08:09.891Z,3.75
2022-09-12T17:10:40.660Z,3.70
2022-09-12T17:13:06.991Z,3.10
2022-09-12T17:15:36.747Z,3.90
2022-09-12T17:18:03.131Z,2.38
2022-09-12T17:20:29.448Z,2.70
2022-09-12T17:22:55.882Z,3.70
2022-09-12T17:25:22.210Z,3.40
2022-09-12T17:27:48.611Z,3.47
2022-09-12T17:30:14.918Z,6.88
2022-09-12T17:32:41.253Z,4.43
2022-09-12T17:35:07.960Z,5.70
2022-09-12T17:37:34.900Z,4.70
2022-09-12T17:40:02.319Z,2.85
2022-09-12T17:42:28.730Z,5.15
2022-09-12T17:44:58.162Z,16.17
2022-09-12T17:47:24.547Z,5.15
2022-09-12T17:49:52.279Z,3.70
2022-09-12T17:52:18.580Z,3.88
2022-09-12T17:54:44.984Z,4.30
2022-09-12T17:57:11.322Z,3.30
2022-09-12T17:59:37.615Z,3.33
2022-09-12T18:02:12.878Z,3.53
2022-09-12T18:04:41.000Z,2.97
2022-09-12T18:07:08.241Z,4.57
2022-09-12T18:09:36.113Z,3.70
2022-09-12T18:12:02.588Z,3.30
2022-09-12T18:14:28.987Z,5.32
2022-09-12T18:16:57.070Z,4.65
2022-09-12T18:19:24.309Z,5.35
2022-09-12T18:21:50.773Z,5.03
2022-09-12T18:24:17.308Z,4.10
2022-09-12T18:26:43.942Z,7.05
2022-09-12T18:29:10.354Z,7.40
2022-09-12T18:31:36.867Z,6.78
2022-09-12T18:34:03.454Z,4.13
2022-09-12T18:36:30.590Z,3.42
2022-09-12T18:38:58.378Z,5.22
2022-09-12T18:41:25.503Z,4.45
2022-09-12T18:43:58.886Z,3.83
2022-09-12T18:46:26.652Z,4.25
2022-09-12T18:48:55.360Z,3.35
2022-09-12T18:51:23.006Z,4.47
2022-09-12T18:53:54.868Z,3.25
2022-09-12T18:56:22.871Z,5.10
2022-09-12T18:58:51.704Z,3.60
2022-09-12T19:01:23.993Z,5.15
2022-09-12T19:03:50.762Z,4.38
2022-09-12T19:06:21.176Z,4.10
2022-09-12T19:08:48.680Z,3.42
2022-09-12T19:11:15.467Z,9.05
2022-09-12T19:13:44.507Z,3.95
2022-09-12T19:16:14.331Z,3.92
2022-09-12T19:18:40.897Z,3.92
2022-09-12T19:21:15.658Z,3.60
2022-09-12T19:23:42.082Z,5.07
2022-09-12T19:26:09.893Z,4.50
2022-09-12T19:28:36.495Z,4.43
2022-09-12T19:31:06.967Z,4.50
2022-09-12T19:33:33.459Z,4.18
2022-09-12T19:36:04.477Z,4.45
2022-09-12T19:38:31.224Z,4.72
2022-09-12T19:41:00.859Z,4.75
2022-09-12T19:43:27.287Z,3.95
2022-09-12T19:45:54.713Z,5.45
2022-09-12T19:48:21.354Z,3.97
2022-09-12T19:50:48.206Z,3.88
2022-09-12T19:53:15.376Z,4.72
2022-09-12T19:55:41.939Z,3.95
2022-09-12T19:58:08.429Z,4.45
2022-09-12T20:00:35.654Z,3.88
2022-09-12T20:03:02.189Z,4.32
2022-09-12T20:05:28.504Z,5.45
2022-09-12T20:07:54.833Z,4.20
2022-09-12T20:10:21.219Z,5.28
2022-09-12T20:12:47.621Z,4.20
2022-09-12T20:15:14.113Z,3.65
2022-09-12T20:17:40.592Z,4.40
2022-09-12T20:20:09.130Z,4.05
2022-09-12T20:22:39.397Z,5.15
2022-09-12T20:25:07.132Z,4.78
2022-09-12T20:27:33.475Z,4.63
2022-09-12T20:29:59.773Z,5.28
2022-09-12T20:32:28.228Z,4.40
2022-09-12T20:34:56.228Z,6.15
2022-09-12T20:37:22.680Z,4.47
2022-09-12T20:39:50.999Z,4.05
2022-09-12T20:42:17.526Z,4.40
2022-09-12T20:44:43.865Z,4.10
2022-09-12T20:47:10.270Z,4.25
2022-09-12T20:49:36.630Z,4.50
2022-09-12T20:52:04.496Z,5.20
2022-09-12T20:54:30.918Z,3.78
2022-09-12T20:56:57.262Z,3.97
2022-09-12T20:59:23.728Z,6.28
2022-09-12T21:01:50.182Z,3.72
2022-09-12T21:04:16.762Z,5.40
2022-09-12T21:06:43.284Z,4.15
2022-09-12T21:09:09.661Z,4.32
2022-09-12T21:11:36.031Z,3.97
2022-09-12T21:14:02.443Z,6.40
2022-09-12T21:16:28.816Z,7.00
2022-09-12T21:18:57.719Z,4.78
2022-09-12T21:21:24.753Z,4.72
2022-09-12T21:23:51.389Z,3.72
2022-09-12T21:26:18.274Z,4.15
2022-09-12T21:28:44.745Z,3.88
2022-09-12T21:31:11.150Z,3.90
2022-09-12T21:33:37.587Z,3.80
2022-09-12T21:36:05.315Z,3.40
2022-09-12T21:38:32.039Z,3.65
2022-09-12T21:41:12.638Z,4.53
2022-09-12T21:43:39.451Z,4.00
2022-09-12T21:46:06.600Z,3.75
2022-09-12T21:48:33.297Z,4.35
2022-09-12T21:50:59.891Z,5.95
2022-09-12T21:53:26.533Z,4.72
2022-09-12T21:55:53.058Z,4.93
2022-09-12T21:58:19.489Z,4.40
2022-09-12T22:00:45.824Z,4.35
2022-09-12T22:03:12.644Z,6.32
2022-09-12T22:05:41.697Z,4.65
2022-09-12T22:08:08.634Z,7.25
2022-09-12T22:10:35.545Z,5.00
2022-09-12T22:13:02.307Z,5.43
2022-09-12T22:15:44.356Z,3.85
2022-09-12T22:18:11.293Z,4.07
2022-09-12T22:20:37.779Z,5.22
2022-09-12T22:23:24.783Z,4.78
2022-09-12T22:25:54.182Z,4.53
2022-09-12T22:28:21.188Z,4.90
2022-09-12T22:30:48.436Z,4.60
2022-09-12T22:33:14.763Z,5.43
2022-09-12T22:35:42.015Z,4.40
2022-09-12T22:38:08.969Z,6.45
2022-09-12T22:40:35.400Z,4.68
2022-09-12T22:43:01.715Z,4.88
2022-09-12T22:45:28.268Z,4.80
2022-09-12T22:47:57.157Z,4.80
2022-09-12T22:50:25.558Z,5.57
2022-09-12T22:52:52.546Z,5.47
2022-09-12T22:55:18.866Z,5.00
2022-09-12T22:57:45.212Z,4.93
2022-09-12T23:00:12.095Z,4.50
2022-09-12T23:02:38.452Z,4.53
2022-09-12T23:05:05.027Z,6.35
2022-09-12T23:07:31.659Z,4.90
2022-09-12T23:09:57.962Z,5.35
2022-09-12T23:12:24.303Z,4.82
2022-09-12T23:14:50.629Z,5.35
2022-09-12T23:17:16.933Z,5.43
2022-09-12T23:19:43.264Z,6.47
2022-09-12T23:22:09.620Z,5.28
2022-09-12T23:24:36.079Z,5.95
2022-09-12T23:27:02.405Z,5.45
2022-09-12T23:29:28.746Z,5.15
2022-09-12T23:31:55.365Z,5.80
2022-09-12T23:34:21.805Z,5.63
2022-09-12T23:36:48.249Z,5.10
2022-09-12T23:39:14.569Z,5.00
2022-09-12T23:41:40.946Z,5.30
2022-09-12T23:44:07.424Z,6.10
2022-09-12T23:46:33.742Z,4.97
2022-09-12T23:49:00.073Z,6.70
2022-09-12T23:51:26.782Z,6.03
2022-09-12T23:53:53.106Z,5.53
2022-09-12T23:56:19.506Z,5.00
2022-09-12T23:58:45.949Z,5.50
